createdAt,value
2022-12-12T00:03:48.433Z,1.65
2022-12-12T00:07:50.034Z,1.63
2022-12-12T00:11:51.612Z,1.64
2022-12-12T00:15:53.183Z,1.63
2022-12-12T00:19:54.862Z,1.64
2022-12-12T00:23:57.430Z,1.64
2022-12-12T00:28:00.403Z,1.61
2022-12-12T00:32:01.937Z,1.63
2022-12-12T00:36:03.873Z,1.63
2022-12-12T00:40:06.331Z,1.63
2022-12-12T00:44:07.910Z,1.63
2022-12-12T00:48:09.479Z,1.61
2022-12-12T00:52:11.111Z,1.63
2022-12-12T00:56:15.211Z,1.61
2022-12-12T01:00:17.454Z,1.56
2022-12-12T01:04:19.122Z,1.56
2022-12-12T01:08:20.774Z,1.54
2022-12-12T01:12:22.339Z,1.52
2022-12-12T01:16:24.615Z,1.43
2022-12-12T01:20:27.800Z,1.39
2022-12-12T01:24:29.372Z,1.35
2022-12-12T01:28:31.198Z,1.28
2022-12-12T01:32:32.718Z,1.21
2022-12-12T01:36:34.416Z,1.16
2022-12-12T01:40:36.026Z,1.10
2022-12-12T01:44:43.068Z,1.07
2022-12-12T01:48:50.926Z,1.02
2022-12-12T01:52:52.602Z,0.99
2022-12-12T01:56:56.387Z,0.95
2022-12-12T02:00:57.938Z,0.88
2022-12-12T02:05:04.916Z,0.90
2022-12-12T02:09:10.202Z,0.84
2022-12-12T02:13:16.093Z,0.81
2022-12-12T02:17:36.707Z,0.78
2022-12-12T02:21:52.615Z,0.71
2022-12-12T02:26:12.782Z,0.68
2022-12-12T02:30:21.079Z,0.64
2022-12-12T02:34:25.320Z,0.62
2022-12-12T02:38:43.696Z,0.57
2022-12-12T02:43:12.942Z,0.51
2022-12-12T02:47:31.385Z,0.49
2022-12-12T02:51:34.450Z,0.45
2022-12-12T02:55:36.709Z,0.43
2022-12-12T02:59:41.883Z,0.38
2022-12-12T03:04:19.580Z,0.38
2022-12-12T03:08:36.066Z,0.34
2022-12-12T03:12:49.221Z,0.34
2022-12-12T03:17:21.835Z,0.33
2022-12-12T03:21:46.769Z,0.31
2022-12-12T03:26:00.538Z,0.33
2022-12-12T03:30:08.570Z,0.30
2022-12-12T03:34:17.729Z,0.26
2022-12-12T03:38:24.688Z,0.26
2022-12-12T03:42:40.889Z,0.22
2022-12-12T03:46:49.145Z,0.22
2022-12-12T03:50:55.253Z,0.20
2022-12-12T03:55:24.243Z,0.15
2022-12-12T03:59:38.593Z,0.10
2022-12-12T04:03:57.761Z,0.02
2022-12-12T04:08:11.406Z,0.02
2022-12-12T04:12:56.676Z,0.04
2022-12-12T04:17:03.408Z,0.08
2022-12-12T04:21:37.053Z,0.10
2022-12-12T04:26:26.533Z,0.13
2022-12-12T04:30:29.829Z,0.16
2022-12-12T04:34:39.250Z,0.17
2022-12-12T04:38:42.762Z,0.17
2022-12-12T04:42:50.849Z,0.19
2022-12-12T04:46:55.766Z,0.19
2022-12-12T04:51:00.110Z,0.22
2022-12-12T04:55:19.197Z,0.22
2022-12-12T04:59:20.894Z,0.23
2022-12-12T05:03:39.781Z,0.25
2022-12-12T05:07:44.321Z,0.26
2022-12-12T05:11:46.103Z,0.30
2022-12-12T05:15:50.684Z,0.28
2022-12-12T05:19:52.238Z,0.28
2022-12-12T05:23:54.101Z,0.28
2022-12-12T05:27:55.793Z,0.28
2022-12-12T05:31:57.446Z,0.31
2022-12-12T05:35:59.123Z,0.34
2022-12-12T05:40:00.699Z,0.35
2022-12-12T05:44:02.342Z,0.40
2022-12-12T05:48:03.956Z,0.41
2022-12-12T05:52:05.643Z,0.43
2022-12-12T05:56:08.800Z,0.44
2022-12-12T06:00:10.883Z,0.43
2022-12-12T06:04:12.625Z,0.43
2022-12-12T06:08:14.544Z,0.37
2022-12-12T06:12:16.123Z,0.40
2022-12-12T06:16:19.377Z,0.43
2022-12-12T06:20:21.015Z,0.38
2022-12-12T06:24:22.837Z,0.38
2022-12-12T06:28:24.367Z,0.34
2022-12-12T06:32:26.113Z,0.35
2022-12-12T06:36:27.642Z,0.37
2022-12-12T06:40:29.195Z,0.37
2022-12-12T06:44:32.740Z,0.41
2022-12-12T06:48:35.177Z,0.43
2022-12-12T06:52:36.761Z,0.41
2022-12-12T06:56:42.028Z,0.41
2022-12-12T07:00:51.247Z,0.43
2022-12-12T07:04:52.850Z,0.41
2022-12-12T07:08:55.142Z,0.41
2022-12-12T07:12:57.700Z,0.43
2022-12-12T07:16:59.355Z,0.40
2022-12-12T07:21:05.218Z,0.41
2022-12-12T07:25:08.498Z,0.44
2022-12-12T07:29:10.904Z,0.43
2022-12-12T07:33:14.272Z,0.43
2022-12-12T07:37:15.871Z,0.44
2022-12-12T07:41:20.362Z,0.45
2022-12-12T07:45:23.114Z,0.45
2022-12-12T07:49:25.135Z,0.49
2022-12-12T07:53:27.710Z,0.51
2022-12-12T07:57:29.866Z,0.51
2022-12-12T08:01:31.654Z,0.51
2022-12-12T08:05:33.369Z,0.52
2022-12-12T08:09:36.392Z,0.56
2022-12-12T08:13:38.878Z,0.60
2022-12-12T08:17:40.486Z,0.64
2022-12-12T08:21:42.905Z,0.64
2022-12-12T08:25:44.418Z,0.71
2022-12-12T08:29:46.000Z,0.71
2022-12-12T08:33:53.309Z,0.74
2022-12-12T08:37:55.058Z,0.80
2022-12-12T08:41:56.710Z,0.81
2022-12-12T08:46:02.255Z,0.88
2022-12-12T08:50:04.925Z,0.89
2022-12-12T08:54:07.175Z,0.92
2022-12-12T08:58:08.760Z,0.98
2022-12-12T09:02:13.003Z,0.98
2022-12-12T09:06:15.404Z,0.96
2022-12-12T09:10:17.392Z,0.98
2022-12-12T09:14:18.956Z,1.06
2022-12-12T09:18:20.632Z,1.11
2022-12-12T09:22:22.184Z,1.14
2022-12-12T09:26:23.930Z,1.17
2022-12-12T09:30:25.536Z,1.21
2022-12-12T09:34:27.090Z,1.25
2022-12-12T09:38:28.840Z,1.32
2022-12-12T09:42:33.151Z,1.36
2022-12-12T09:46:40.214Z,1.36
2022-12-12T09:50:46.282Z,1.38
2022-12-12T09:54:47.960Z,1.38
2022-12-12T09:58:58.417Z,1.34
2022-12-12T10:03:14.839Z,1.34
2022-12-12T10:07:22.914Z,1.32
2022-12-12T10:11:54.558Z,1.31
2022-12-12T10:15:59.591Z,1.24
2022-12-12T10:20:08.340Z,1.24
2022-12-12T10:24:32.678Z,1.21
2022-12-12T10:28:35.320Z,1.28
2022-12-12T10:32:54.341Z,1.35
2022-12-12T10:37:14.517Z,1.43
2022-12-12T10:41:44.100Z,1.39
2022-12-12T10:46:07.255Z,1.46
2022-12-12T10:50:13.399Z,1.52
2022-12-12T10:54:22.034Z,1.50
2022-12-12T10:58:32.237Z,1.52
2022-12-12T11:02:39.069Z,1.52
2022-12-12T11:06:47.067Z,1.60
2022-12-12T11:11:01.389Z,1.65
2022-12-12T11:15:13.351Z,1.64
2022-12-12T11:19:21.408Z,1.74
2022-12-12T11:23:26.848Z,1.74
2022-12-12T11:27:32.992Z,1.75
2022-12-12T11:31:35.439Z,1.79
2022-12-12T11:35:47.504Z,2.05
2022-12-12T11:39:51.833Z,2.22
2022-12-12T11:43:58.040Z,2.14
2022-12-12T11:47:59.678Z,2.15
2022-12-12T11:52:18.378Z,2.19
2022-12-12T11:56:47.962Z,2.12
2022-12-12T12:01:00.186Z,2.22
2022-12-12T12:05:21.725Z,2.25
2022-12-12T12:09:40.656Z,2.30
2022-12-12T12:14:00.768Z,2.23
2022-12-12T12:18:41.518Z,2.27
2022-12-12T12:23:04.972Z,2.32
2022-12-12T12:27:38.786Z,2.30
2022-12-12T12:32:00.773Z,2.14
2022-12-12T12:36:23.861Z,2.02
2022-12-12T12:40:59.465Z,1.98
2022-12-12T12:45:00.941Z,2.00
2022-12-12T12:49:15.110Z,2.07
2022-12-12T12:53:36.053Z,2.11
2022-12-12T12:57:40.249Z,2.18
2022-12-12T13:01:49.258Z,2.20
2022-12-12T13:06:01.124Z,2.14
2022-12-12T13:10:16.965Z,2.22
2022-12-12T13:14:37.979Z,2.32
2022-12-12T13:18:45.718Z,2.27
2022-12-12T13:23:12.918Z,2.23
2022-12-12T13:27:26.783Z,2.30
2022-12-12T13:31:58.225Z,2.33
2022-12-12T13:36:29.049Z,2.30
2022-12-12T13:40:41.373Z,2.25
2022-12-12T13:44:48.073Z,2.27
2022-12-12T13:49:06.523Z,2.45
2022-12-12T13:53:08.708Z,2.41
2022-12-12T13:57:20.886Z,2.45
2022-12-12T14:01:27.414Z,2.63
2022-12-12T14:05:35.849Z,2.58
2022-12-12T14:09:49.068Z,2.51
2022-12-12T14:13:51.545Z,2.45
2022-12-12T14:18:00.630Z,2.27
2022-12-12T14:22:03.122Z,2.15
2022-12-12T14:26:23.346Z,2.04
2022-12-12T14:30:44.699Z,2.00
2022-12-12T14:34:58.431Z,2.01
2022-12-12T14:39:14.946Z,1.92
2022-12-12T14:43:25.410Z,1.85
2022-12-12T14:47:26.931Z,1.81
2022-12-12T14:51:33.290Z,1.74
2022-12-12T14:55:34.907Z,1.68
2022-12-12T14:59:38.656Z,1.63
2022-12-12T15:03:47.002Z,1.57
2022-12-12T15:07:58.145Z,1.53
2022-12-12T15:12:11.617Z,1.46
2022-12-12T15:16:13.438Z,1.43
2022-12-12T15:20:18.765Z,1.36
2022-12-12T15:24:23.164Z,1.34
2022-12-12T15:28:25.241Z,1.28
2022-12-12T15:32:28.277Z,1.24
2022-12-12T15:36:31.866Z,1.16
2022-12-12T15:40:35.576Z,1.11
2022-12-12T15:44:39.250Z,1.07
2022-12-12T15:48:45.020Z,1.00
2022-12-12T15:53:27.665Z,1.00
2022-12-12T15:57:34.205Z,0.96
2022-12-12T16:01:36.025Z,0.93
2022-12-12T16:05:39.490Z,0.95
2022-12-12T16:09:57.709Z,0.90
2022-12-12T16:13:59.950Z,0.88
2022-12-12T16:18:07.970Z,0.84
2022-12-12T16:22:28.889Z,0.81
2022-12-12T16:26:30.426Z,0.77
2022-12-12T16:30:32.066Z,0.74
2022-12-12T16:34:33.606Z,0.86
2022-12-12T16:38:35.493Z,0.98
2022-12-12T16:42:37.434Z,0.84
2022-12-12T16:46:38.962Z,0.75
2022-12-12T16:50:40.608Z,0.67
2022-12-12T16:54:46.883Z,0.62
2022-12-12T16:58:53.349Z,0.57
2022-12-12T17:02:55.594Z,0.48
2022-12-12T17:06:57.594Z,0.45
2022-12-12T17:11:10.477Z,0.43
2022-12-12T17:15:16.869Z,0.38
2022-12-12T17:19:18.424Z,0.37
2022-12-12T17:23:27.631Z,0.35
2022-12-12T17:27:29.344Z,0.34
2022-12-12T17:31:31.587Z,0.30
2022-12-12T17:35:33.324Z,0.26
2022-12-12T17:39:34.938Z,0.23
2022-12-12T17:43:37.420Z,0.19
2022-12-12T17:47:38.975Z,0.16
2022-12-12T17:51:40.671Z,0.12
2022-12-12T17:55:53.078Z,0.08
2022-12-12T17:59:58.482Z,0.08
2022-12-12T18:04:01.216Z,0.07
2022-12-12T18:08:02.914Z,0.08
2022-12-12T18:12:05.131Z,0.07
2022-12-12T18:16:08.563Z,0.04
2022-12-12T18:20:10.474Z,0.02
2022-12-12T18:24:12.443Z,-0.03
2022-12-12T18:28:13.991Z,-0.02
2022-12-12T18:32:15.777Z,-0.05
2022-12-12T18:36:21.084Z,-0.09
2022-12-12T18:40:22.634Z,-0.12
2022-12-12T18:44:24.186Z,-0.13
2022-12-12T18:48:25.759Z,-0.14
2022-12-12T18:52:27.311Z,-0.17
2022-12-12T18:56:31.154Z,-0.16
2022-12-12T19:00:32.665Z,-0.19
2022-12-12T19:04:34.390Z,-0.23
2022-12-12T19:08:36.757Z,-0.27
2022-12-12T19:12:38.410Z,-0.32
2022-12-12T19:16:40.006Z,-0.38
2022-12-12T19:20:41.730Z,-0.42
2022-12-12T19:24:43.314Z,-0.47
2022-12-12T19:28:45.711Z,-0.50
2022-12-12T19:32:48.986Z,-0.58
2022-12-12T19:36:52.486Z,-0.62
2022-12-12T19:40:54.957Z,-0.63
2022-12-12T19:44:56.544Z,-0.65
2022-12-12T19:49:01.266Z,-0.68
2022-12-12T19:53:03.157Z,-0.73
2022-12-12T19:57:05.059Z,-0.78
2022-12-12T20:01:07.737Z,-0.78
2022-12-12T20:05:10.109Z,-0.80
2022-12-12T20:09:14.337Z,-0.78
2022-12-12T20:13:15.879Z,-0.83
2022-12-12T20:17:17.415Z,-0.83
2022-12-12T20:21:58.678Z,-0.89
2022-12-12T20:25:42.796Z,-0.92
2022-12-12T20:29:44.556Z,-0.96
2022-12-12T20:33:46.881Z,-0.99
2022-12-12T20:37:48.742Z,-1.02
2022-12-12T20:41:50.855Z,-1.05
2022-12-12T20:45:52.563Z,-1.08
2022-12-12T20:49:54.248Z,-1.10
2022-12-12T20:53:57.287Z,-1.10
2022-12-12T20:57:59.514Z,-1.13
2022-12-12T21:02:02.331Z,-1.15
2022-12-12T21:06:14.634Z,-1.18
2022-12-12T21:10:16.292Z,-1.23
2022-12-12T21:14:17.853Z,-1.26
2022-12-12T21:18:20.263Z,-1.29
2022-12-12T21:22:21.908Z,-1.33
2022-12-12T21:26:28.948Z,-1.36
2022-12-12T21:30:30.968Z,-1.41
2022-12-12T21:34:32.682Z,-1.47
2022-12-12T21:38:34.391Z,-1.47
2022-12-12T21:42:35.907Z,-1.47
2022-12-12T21:46:41.600Z,-1.47
2022-12-12T21:50:43.319Z,-1.51
2022-12-12T21:54:44.827Z,-1.54
2022-12-12T21:58:46.451Z,-1.56
2022-12-12T22:02:50.125Z,-1.57
2022-12-12T22:06:52.071Z,-1.61
2022-12-12T22:10:54.437Z,-1.62
2022-12-12T22:14:56.222Z,-1.64
2022-12-12T22:19:02.278Z,-1.67
2022-12-12T22:23:10.234Z,-1.68
2022-12-12T22:27:11.747Z,-1.68
2022-12-12T22:31:14.044Z,-1.68
2022-12-12T22:35:15.939Z,-1.68
2022-12-12T22:39:26.701Z,-1.68
2022-12-12T22:43:29.595Z,-1.67
2022-12-12T22:47:31.092Z,-1.70
2022-12-12T22:51:33.713Z,-1.70
2022-12-12T22:55:36.244Z,-1.68
2022-12-12T22:59:37.773Z,-1.68
2022-12-12T23:03:40.064Z,-1.70
2022-12-12T23:07:41.746Z,-1.70
2022-12-12T23:11:44.505Z,-1.78
2022-12-12T23:15:46.105Z,-1.82
2022-12-12T23:19:47.691Z,-1.88
2022-12-12T23:23:50.046Z,-1.92
2022-12-12T23:27:51.608Z,-1.95
2022-12-12T23:31:54.148Z,-1.95
2022-12-12T23:35:55.716Z,-2.00
2022-12-12T23:39:57.361Z,-2.00
2022-12-12T23:43:59.088Z,-2.06
2022-12-12T23:48:02.251Z,-2.13
2022-12-12T23:52:03.956Z,-2.11
2022-12-12T23:56:05.945Z,-2.08
